Terminal Aerodrome Forecast
Issued by NWS Sioux Falls, SD

Home | Current Version | Previous Version | Text Only | Print | Product List | Glossary On
Versions: 1 2 3 4 5 6 7 8 9 10 11 12 13 14 15 16 17 18 19
000
FTUS43 KFSD 300520
TAFFSD
TAF
KFSD 300520Z 3006/3106 36014KT P6SM SCT120
     FM300800 36008KT P6SM SKC
     FM301600 03012KT P6SM SKC
     FM310200 08005KT P6SM FEW200=

USA.gov is the U.S. government's official web portal to all federal, state and local government web resources and services.